createdAt,value
2018-04-02T00:00:31.087Z,80.9
2018-04-02T00:05:03.373Z,80.9
2018-04-02T00:10:10.784Z,81.3
2018-04-02T00:15:11.130Z,81
2018-04-02T00:20:06.066Z,81
2018-04-02T00:25:07.851Z,81.3
2018-04-02T00:30:15.836Z,81.6
2018-04-02T00:35:18.589Z,81
2018-04-02T00:40:05.975Z,80.6
2018-04-02T00:45:07.777Z,80.9
2018-04-02T00:50:05.652Z,81
2018-04-02T00:55:08.430Z,81.1
2018-04-02T01:00:05.410Z,80.9
2018-04-02T01:05:10.599Z,81.1
2018-04-02T01:10:08.464Z,81.2
2018-04-02T01:15:02.695Z,81.2
2018-04-02T01:20:05.584Z,80.9
2018-04-02T01:25:10.930Z,81.1
2018-04-02T01:30:05.763Z,81.2
2018-04-02T01:35:06.095Z,81.3
2018-04-02T01:40:08.074Z,81.2
2018-04-02T01:45:03.169Z,81.2
2018-04-02T01:50:06.081Z,80.8
2018-04-02T01:55:02.726Z,80.8
2018-04-02T02:00:10.677Z,81.1
2018-04-02T02:05:15.972Z,81.4
2018-04-02T02:15:18.168Z,82.2
2018-04-02T02:20:08.638Z,82.6
2018-04-02T02:25:33.166Z,82.7
2018-04-02T02:30:18.676Z,83
2018-04-02T02:35:17.997Z,83.4
2018-04-02T02:40:05.430Z,83.8
2018-04-02T02:45:03.059Z,83.8
2018-04-02T02:50:05.923Z,83.8
2018-04-02T02:55:10.250Z,84.1
2018-04-02T03:00:03.626Z,84
2018-04-02T03:05:02.877Z,84.3
2018-04-02T03:10:17.940Z,84.9
2018-04-02T03:15:02.962Z,84.9
2018-04-02T03:20:06.021Z,85.3
2018-04-02T03:30:10.356Z,86
2018-04-02T03:35:05.728Z,86.2
2018-04-02T03:40:18.681Z,86.2
2018-04-02T03:45:05.311Z,86.6
2018-04-02T03:50:07.708Z,86.5
2018-04-02T03:55:02.860Z,86.5
2018-04-02T04:00:03.174Z,86.4
2018-04-02T04:05:05.910Z,86.9
2018-04-02T04:10:07.786Z,87
2018-04-02T04:15:02.922Z,87
2018-04-02T04:20:08.433Z,87.5
2018-04-02T04:25:06.059Z,87.6
2018-04-02T04:30:03.383Z,87.6
2018-04-02T04:35:02.606Z,87.9
2018-04-02T04:40:03.354Z,87.8
2018-04-02T04:45:05.362Z,88
2018-04-02T04:50:07.988Z,88
2018-04-02T04:55:33.523Z,88.2
2018-04-02T05:00:10.357Z,88.3
2018-04-02T05:05:05.683Z,88.4
2018-04-02T05:10:03.477Z,88.3
2018-04-02T05:15:20.490Z,88.6
2018-04-02T05:20:28.188Z,88.6
2018-04-02T05:25:03.480Z,88.6
2018-04-02T05:30:05.365Z,88.5
2018-04-02T05:35:05.558Z,88.2
2018-04-02T05:40:08.423Z,88
2018-04-02T05:45:15.330Z,87.9
2018-04-02T05:50:25.475Z,87.6
2018-04-02T05:55:05.343Z,87.8
2018-04-02T06:00:07.788Z,87.5
2018-04-02T06:05:08.045Z,87
2018-04-02T06:10:05.347Z,86.9
2018-04-02T06:15:03.101Z,86.9
2018-04-02T06:20:08.584Z,85.2
2018-04-02T06:25:18.047Z,84.6
2018-04-02T06:30:03.341Z,84.6
2018-04-02T06:35:36.144Z,84.4
2018-04-02T06:40:02.902Z,84.4
2018-04-02T06:45:13.392Z,84.1
2018-04-02T06:50:17.910Z,84.3
2018-04-02T06:55:03.077Z,84.3
2018-04-02T07:00:08.408Z,83.9
2018-04-02T07:05:02.672Z,83.9
2018-04-02T07:10:08.552Z,83.4
2018-04-02T07:15:10.298Z,82.8
2018-04-02T07:20:17.908Z,82.4
2018-04-02T07:25:05.509Z,81.9
2018-04-02T07:30:07.813Z,81.7
2018-04-02T07:35:13.111Z,81.3
2018-04-02T07:40:05.399Z,81
2018-04-02T07:45:18.477Z,80.9
2018-04-02T07:50:05.293Z,80.8
2018-04-02T07:55:10.690Z,79.4
2018-04-02T08:00:08.036Z,79.1
2018-04-02T08:05:03.579Z,79.1
2018-04-02T08:10:04.018Z,79.4
2018-04-02T08:15:10.309Z,77.4
2018-04-02T08:20:07.782Z,77.2
2018-04-02T08:25:08.070Z,76.3
2018-04-02T08:30:21.256Z,75.4
2018-04-02T08:35:05.283Z,74.4
2018-04-02T08:40:23.266Z,72.9
2018-04-02T08:45:05.983Z,72
2018-04-02T08:50:05.788Z,72
2018-04-02T08:55:06.050Z,68.8
2018-04-02T09:00:03.404Z,68.8
2018-04-02T09:05:22.997Z,64
2018-04-02T09:10:02.832Z,64
2018-04-02T09:15:03.320Z,62.8
2018-04-02T09:20:35.604Z,61.3
2018-04-02T09:25:08.010Z,59.6
2018-04-02T09:30:13.573Z,59.4
2018-04-02T09:35:15.267Z,53.9
2018-04-02T09:40:03.034Z,53.7
2018-04-02T09:45:08.460Z,51
2018-04-02T09:50:10.338Z,50.4
2018-04-02T10:00:03.538Z,50
2018-04-02T10:05:10.504Z,48.8
2018-04-02T10:10:08.689Z,50.3
2018-04-02T10:15:03.072Z,50.3
2018-04-02T10:20:03.618Z,49.4
2018-04-02T10:25:10.373Z,48.6
2018-04-02T10:30:15.617Z,49.4
2018-04-02T10:35:18.413Z,49.4
2018-04-02T10:40:08.260Z,50.2
2018-04-02T10:45:13.671Z,49.1
2018-04-02T10:50:05.653Z,49.2
2018-04-02T10:55:16.117Z,49.3
2018-04-02T11:00:05.978Z,49.1
2018-04-02T11:05:05.295Z,50.6
2018-04-02T11:10:03.118Z,50.6
2018-04-02T11:15:08.510Z,50.9
2018-04-02T11:20:02.991Z,50.8
2018-04-02T11:25:05.993Z,49.4
2018-04-02T11:30:03.435Z,49.3
2018-04-02T11:35:05.205Z,49.2
2018-04-02T11:40:03.034Z,49.2
2018-04-02T11:45:08.381Z,50.9
2018-04-02T11:50:05.202Z,49.9
2018-04-02T11:55:18.181Z,49.9
2018-04-02T12:00:13.639Z,51.1
2018-04-02T12:05:07.911Z,51.2
2018-04-02T12:10:17.892Z,50.3
2018-04-02T12:15:18.191Z,48.9
2018-04-02T12:20:26.451Z,49.5
2018-04-02T12:25:02.854Z,49.5
2018-04-02T12:30:10.787Z,49.1
2018-04-02T12:35:05.116Z,49.1
2018-04-02T12:40:08.048Z,49.1
2018-04-02T12:45:08.895Z,48.2
2018-04-02T12:50:06.136Z,45.2
2018-04-02T12:55:18.072Z,42.9
2018-04-02T13:00:03.389Z,42.8
2018-04-02T13:05:02.817Z,40
2018-04-02T13:10:05.220Z,38.3
2018-04-02T13:15:05.561Z,37.6
2018-04-02T13:20:03.048Z,37.7
2018-04-02T13:25:10.984Z,41.5
2018-04-02T13:30:08.385Z,39.9
2018-04-02T13:35:05.260Z,40.5
2018-04-02T13:40:18.296Z,36.9
2018-04-02T13:45:05.973Z,38.9
2018-04-02T13:50:03.331Z,38.9
2018-04-02T13:55:15.438Z,38.6
2018-04-02T14:00:02.812Z,38.6
2018-04-02T14:10:05.482Z,32.3
2018-04-02T14:15:03.400Z,32.2
2018-04-02T14:20:03.179Z,32.4
2018-04-02T14:25:17.762Z,36.9
2018-04-02T14:30:08.571Z,35.6
2018-04-02T14:35:05.361Z,33.6
2018-04-02T14:40:16.215Z,32.9
2018-04-02T14:45:05.617Z,31.7
2018-04-02T14:50:31.137Z,29.8
2018-04-02T14:55:10.403Z,30
2018-04-02T15:00:05.820Z,28.4
2018-04-02T15:05:02.873Z,28.5
2018-04-02T15:10:33.134Z,31.3
2018-04-02T15:15:03.521Z,31.4
2018-04-02T15:20:10.650Z,34.4
2018-04-02T15:25:06.037Z,35.2
2018-04-02T15:30:05.968Z,35.2
2018-04-02T15:35:07.902Z,34
2018-04-02T15:40:03.120Z,34
2018-04-02T15:45:02.597Z,34.9
2018-04-02T15:50:20.766Z,37.5
2018-04-02T15:55:21.099Z,38.1
2018-04-02T16:00:03.501Z,38
2018-04-02T16:05:18.118Z,39.7
2018-04-02T16:10:08.059Z,40.6
2018-04-02T16:15:08.500Z,41.7
2018-04-02T16:20:03.205Z,41.8
2018-04-02T16:25:03.548Z,42.2
2018-04-02T16:30:02.946Z,42.8
2018-04-02T16:35:03.339Z,43.7
2018-04-02T16:40:05.807Z,44.4
2018-04-02T16:45:07.718Z,45.1
2018-04-02T16:50:03.174Z,45.1
2018-04-02T16:55:03.475Z,46
2018-04-02T17:00:05.370Z,47.3
2018-04-02T17:05:03.233Z,47.3
2018-04-02T17:10:13.191Z,47.8
2018-04-02T17:15:08.462Z,47.8
2018-04-02T17:20:03.052Z,47.8
2018-04-02T17:30:02.617Z,49.3
2018-04-02T17:35:13.111Z,50.6
2018-04-02T17:40:33.409Z,50.5
2018-04-02T17:45:02.797Z,50.4
2018-04-02T17:50:03.184Z,51.1
2018-04-02T17:55:02.788Z,51.3
2018-04-02T18:00:05.652Z,52.6
2018-04-02T18:05:08.575Z,52.5
2018-04-02T18:10:28.753Z,53.1
2018-04-02T18:15:05.669Z,53.1
2018-04-02T18:20:28.378Z,53.3
2018-04-02T18:25:20.460Z,53.1
2018-04-02T18:30:18.072Z,53.6
2018-04-02T18:35:10.818Z,53.7
2018-04-02T18:40:02.789Z,53.7
2018-04-02T18:45:03.156Z,53.6
2018-04-02T18:50:23.795Z,54
2018-04-02T18:55:02.917Z,54
2018-04-02T19:05:08.567Z,54.2
2018-04-02T19:10:03.434Z,54.2
2018-04-02T19:15:10.396Z,54.8
2018-04-02T19:20:05.351Z,55
2018-04-02T19:25:10.947Z,54.8
2018-04-02T19:30:08.338Z,54.7
2018-04-02T19:35:10.333Z,55
2018-04-02T19:40:08.235Z,55.2
2018-04-02T19:45:03.121Z,55.3
2018-04-02T19:50:03.537Z,55.3
2018-04-02T19:55:05.417Z,55.6
2018-04-02T20:00:05.286Z,56.1
2018-04-02T20:05:08.245Z,56.7
2018-04-02T20:10:08.163Z,56.9
2018-04-02T20:15:08.552Z,57.3
2018-04-02T20:20:08.089Z,57.3
2018-04-02T20:25:03.507Z,57.3
2018-04-02T20:30:06.066Z,57.7
2018-04-02T20:35:02.875Z,57.7
2018-04-02T20:40:07.804Z,57.9
2018-04-02T20:45:03.220Z,58
2018-04-02T20:50:15.230Z,58.6
2018-04-02T20:55:05.632Z,59.1
2018-04-02T21:00:02.993Z,59.1
2018-04-02T21:05:15.997Z,58.7
2018-04-02T21:10:02.824Z,58.7
2018-04-02T21:15:03.212Z,8
2018-04-02T21:20:25.450Z,60.1
2018-04-02T21:25:02.832Z,60.4
2018-04-02T21:30:08.248Z,60
2018-04-02T21:35:10.194Z,59.3
2018-04-02T21:40:20.779Z,61.4
2018-04-02T21:45:21.119Z,62.1
2018-04-02T21:50:08.593Z,60
2018-04-02T21:55:05.430Z,60.1
2018-04-02T22:00:10.392Z,59.1
2018-04-02T22:05:03.208Z,59.1
2018-04-02T22:10:08.076Z,60
2018-04-02T22:15:18.511Z,59.4
2018-04-02T22:20:02.922Z,59.4
2018-04-02T22:25:10.927Z,59.5
2018-04-02T22:30:10.802Z,59.1
2018-04-02T22:35:13.645Z,59.7
2018-04-02T22:40:08.523Z,59.8
2018-04-02T22:45:02.753Z,59.8
2018-04-02T22:50:03.070Z,59.9
2018-04-02T22:55:16.065Z,60.1
2018-04-02T23:00:13.558Z,60.3
2018-04-02T23:05:17.911Z,60.9
2018-04-02T23:10:02.737Z,60.9
2018-04-02T23:15:05.709Z,60.5
2018-04-02T23:20:05.819Z,61
2018-04-02T23:25:05.959Z,61.1
2018-04-02T23:30:36.116Z,60.7
2018-04-02T23:35:11.106Z,61.7
2018-04-02T23:40:10.519Z,61.4
2018-04-02T23:45:05.796Z,61
2018-04-02T23:50:03.123Z,60.9
2018-04-02T23:55:11.064Z,60.9
